Time;durP1;ratioP1;P1;durP2;ratioP2;P2;SDS_P1;SDS_P2;PMS_P1;PMS_P2;Temp;Humidity;BMP_temperature;BMP_pressure;BME280_temperature;BME280_humidity;BME280_pressure;Samples;Min_cycle;Max_cycle;Signal;HPM_P1;HPM_P2
2021/12/31 00:00:50;;;;;;;14.18;4.20;;;11.70;99.90;;;;;;5094633;28;20051;-68
2021/12/31 00:03:18;;;;;;;16.55;3.42;;;11.70;99.90;;;;;;5103907;28;20087;-68
2021/12/31 00:05:44;;;;;;;16.58;4.68;;;11.80;99.90;;;;;;5101476;28;20048;-68
2021/12/31 00:08:10;;;;;;;20.38;4.03;;;11.70;99.90;;;;;;5099300;28;20040;-69
2021/12/31 00:10:36;;;;;;;18.00;4.10;;;11.70;99.90;;;;;;5111049;28;20184;-68
2021/12/31 00:13:01;;;;;;;18.00;4.03;;;11.70;99.90;;;;;;5104262;28;20114;-68
2021/12/31 00:15:27;;;;;;;10.65;2.95;;;11.80;99.90;;;;;;5106677;28;20123;-68
2021/12/31 00:17:52;;;;;;;22.55;5.22;;;11.70;99.90;;;;;;5092660;28;20058;-68
2021/12/31 00:20:22;;;;;;;13.65;3.80;;;11.70;99.90;;;;;;5104560;28;20145;-68
2021/12/31 00:25:18;;;;;;;11.95;3.50;;;11.70;99.90;;;;;;5100577;28;20056;-68
2021/12/31 00:27:43;;;;;;;25.50;4.32;;;11.70;99.90;;;;;;5095617;28;20040;-68
2021/12/31 00:30:10;;;;;;;24.70;4.40;;;11.70;99.90;;;;;;5110222;28;20063;-68
2021/12/31 00:32:37;;;;;;;18.30;4.25;;;11.70;99.90;;;;;;5107987;28;20522;-68
2021/12/31 00:35:03;;;;;;;19.92;3.72;;;11.70;99.90;;;;;;5093238;28;20169;-68
2021/12/31 00:37:31;;;;;;;18.73;3.63;;;11.60;99.90;;;;;;5092673;28;20043;-68
2021/12/31 00:39:57;;;;;;;17.67;4.18;;;11.70;99.90;;;;;;5092379;28;20051;-68
2021/12/31 00:42:23;;;;;;;13.07;3.40;;;11.70;99.90;;;;;;5095283;28;20056;-68
2021/12/31 00:44:49;;;;;;;19.00;4.57;;;11.70;99.90;;;;;;5102232;28;20055;-68
2021/12/31 00:47:15;;;;;;;23.13;5.47;;;11.70;99.90;;;;;;5104006;28;20062;-68
2021/12/31 00:49:41;;;;;;;15.25;4.22;;;11.80;99.90;;;;;;5096004;28;20032;-68
2021/12/31 00:52:07;;;;;;;20.90;3.67;;;11.70;99.90;;;;;;5097879;28;20039;-68
2021/12/31 00:54:34;;;;;;;17.48;4.10;;;11.70;99.90;;;;;;5098754;28;20401;-68
2021/12/31 00:57:03;;;;;;;18.15;4.10;;;11.70;99.90;;;;;;5101344;28;20048;-68
2021/12/31 00:59:32;;;;;;;19.35;4.70;;;11.70;99.90;;;;;;5099591;28;20055;-68
2021/12/31 01:01:59;;;;;;;15.68;3.42;;;11.70;99.90;;;;;;5099130;28;20101;-68
2021/12/31 01:04:26;;;;;;;17.33;4.68;;;11.70;99.90;;;;;;5100774;28;20084;-68
2021/12/31 01:06:52;;;;;;;17.65;5.13;;;11.80;99.90;;;;;;5108253;28;20127;-68
2021/12/31 01:09:17;;;;;;;16.58;4.53;;;11.70;99.90;;;;;;5099749;28;20055;-68
2021/12/31 01:11:47;;;;;;;15.52;3.90;;;11.70;99.90;;;;;;5102688;28;20050;-68
2021/12/31 01:14:28;;;;;;;21.92;4.30;;;11.80;99.90;;;;;;5082332;28;20058;-68
2021/12/31 01:17:09;;;;;;;14.32;3.63;;;11.80;99.90;;;;;;5098808;28;20382;-68
2021/12/31 01:19:49;;;;;;;24.13;5.00;;;11.80;99.90;;;;;;5100449;28;20056;-67
2021/12/31 01:22:26;;;;;;;14.85;3.95;;;11.80;99.90;;;;;;5098934;28;20056;-67
2021/12/31 01:24:52;;;;;;;19.55;4.63;;;11.80;99.90;;;;;;5109790;28;20079;-67
2021/12/31 01:27:18;;;;;;;13.23;3.80;;;11.80;99.90;;;;;;5108522;28;20550;-67
2021/12/31 01:29:43;;;;;;;21.98;4.18;;;11.80;99.90;;;;;;5094797;28;20044;-67
2021/12/31 01:32:10;;;;;;;19.77;4.90;;;11.80;99.90;;;;;;5096683;28;20146;-67
2021/12/31 01:34:36;;;;;;;21.42;4.15;;;11.80;99.90;;;;;;5105458;28;20119;-67
2021/12/31 01:37:02;;;;;;;15.65;4.13;;;11.80;99.90;;;;;;5092105;28;20040;-67
2021/12/31 01:39:28;;;;;;;21.33;4.30;;;11.80;99.90;;;;;;5106611;28;20109;-67
2021/12/31 01:41:57;;;;;;;19.20;4.60;;;11.80;99.90;;;;;;5111719;28;20043;-67
2021/12/31 01:44:26;;;;;;;21.92;4.32;;;11.90;99.90;;;;;;5107122;28;20040;-67
2021/12/31 01:46:54;;;;;;;16.40;4.50;;;11.90;99.90;;;;;;5100475;28;20048;-67
2021/12/31 01:49:22;;;;;;;22.52;4.60;;;11.80;99.90;;;;;;5099196;28;20051;-67
2021/12/31 01:51:48;;;;;;;16.95;4.43;;;11.80;99.90;;;;;;5100459;27;20126;-67
2021/12/31 01:54:13;;;;;;;21.73;4.70;;;11.90;99.90;;;;;;5096486;28;20177;-67
2021/12/31 01:56:39;;;;;;;16.98;4.40;;;11.90;99.90;;;;;;5098304;28;20048;-67
2021/12/31 01:59:07;;;;;;;16.30;3.97;;;11.90;99.90;;;;;;5099523;28;20054;-67
2021/12/31 02:01:35;;;;;;;16.67;4.35;;;12.00;99.90;;;;;;5110968;28;20083;-67
2021/12/31 02:04:00;;;;;;;15.77;4.22;;;12.00;99.90;;;;;;5111294;28;20040;-67
2021/12/31 02:06:27;;;;;;;16.95;4.07;;;12.00;99.90;;;;;;5093630;28;20044;-67
2021/12/31 02:08:53;;;;;;;19.40;3.88;;;12.00;99.90;;;;;;5091876;28;20054;-67
2021/12/31 02:11:20;;;;;;;20.92;4.78;;;12.00;99.90;;;;;;5091019;28;20131;-67
2021/12/31 02:13:47;;;;;;;14.00;3.28;;;12.00;99.90;;;;;;5091077;28;20052;-67
2021/12/31 02:16:13;;;;;;;19.02;4.05;;;12.00;99.90;;;;;;5090545;28;20044;-67
2021/12/31 02:18:42;;;;;;;16.23;4.30;;;12.10;99.90;;;;;;5090344;28;20394;-67
2021/12/31 02:21:11;;;;;;;20.52;4.05;;;12.10;99.90;;;;;;5089825;28;20056;-67
2021/12/31 02:23:43;;;;;;;19.45;3.80;;;12.20;99.90;;;;;;5092775;28;20048;-67
2021/12/31 02:26:10;;;;;;;12.60;3.35;;;12.20;99.90;;;;;;5096695;28;20044;-67
2021/12/31 02:28:36;;;;;;;15.73;3.53;;;12.20;99.90;;;;;;5109846;28;20090;-67
2021/12/31 02:31:03;;;;;;;11.77;3.70;;;12.30;99.90;;;;;;5092237;28;20068;-67
2021/12/31 02:33:30;;;;;;;24.35;3.88;;;12.30;99.90;;;;;;5089741;28;20048;-67
2021/12/31 02:35:56;;;;;;;16.55;3.17;;;12.30;99.90;;;;;;5095962;28;20170;-67
2021/12/31 02:38:22;;;;;;;9.82;2.92;;;12.40;99.90;;;;;;5111457;28;20047;-67
2021/12/31 02:40:47;;;;;;;12.15;3.50;;;12.40;99.90;;;;;;5093652;28;20840;-67
2021/12/31 02:43:13;;;;;;;11.45;3.22;;;12.40;99.90;;;;;;5091426;28;20052;-67
2021/12/31 02:45:45;;;;;;;12.15;3.53;;;12.40;99.90;;;;;;5097742;28;20486;-67
2021/12/31 02:48:10;;;;;;;12.43;3.67;;;12.40;99.90;;;;;;5110036;28;20044;-67
2021/12/31 02:50:40;;;;;;;13.15;3.65;;;12.50;99.90;;;;;;5110435;28;20829;-67
2021/12/31 02:53:12;;;;;;;9.43;2.65;;;12.50;99.90;;;;;;5111630;28;20035;-67
2021/12/31 02:55:39;;;;;;;;;;;12.50;99.90;;;;;;5127291;27;20079;-67
2021/12/31 02:58:06;;;;;;;18.92;3.65;;;12.60;99.90;;;;;;5110338;28;19924;-67
2021/12/31 03:00:34;;;;;;;8.30;3.42;;;12.50;99.90;;;;;;5111475;28;20457;-67
2021/12/31 03:03:01;;;;;;;15.30;3.20;;;12.50;99.90;;;;;;5109697;28;20067;-67
2021/12/31 03:05:31;;;;;;;10.90;2.75;;;12.50;99.90;;;;;;5110259;28;20055;-67
2021/12/31 03:07:58;;;;;;;14.48;3.53;;;12.50;99.90;;;;;;5111650;28;20086;-67
2021/12/31 03:10:26;;;;;;;11.05;3.22;;;12.50;99.90;;;;;;5109438;28;20094;-67
2021/12/31 03:12:53;;;;;;;11.77;2.95;;;12.50;99.90;;;;;;5109856;28;20052;-67
2021/12/31 03:15:19;;;;;;;11.65;3.35;;;12.50;99.90;;;;;;5109944;28;20058;-67
2021/12/31 03:17:45;;;;;;;11.55;3.60;;;12.50;99.90;;;;;;5110224;28;20058;-67
2021/12/31 03:20:25;;;;;;;12.43;3.30;;;12.60;99.90;;;;;;5109592;28;20544;-67
2021/12/31 03:22:51;;;;;;;15.65;3.60;;;12.50;99.90;;;;;;5107923;28;20115;-67
2021/12/31 03:25:16;;;;;;;9.23;3.55;;;12.50;99.90;;;;;;5098374;28;20873;-67
2021/12/31 03:27:42;;;;;;;17.20;3.63;;;12.50;99.90;;;;;;5099893;28;20048;-67
2021/12/31 03:30:10;;;;;;;13.93;3.35;;;12.50;99.90;;;;;;5098219;28;20126;-67
2021/12/31 03:32:36;;;;;;;11.88;3.47;;;12.50;99.90;;;;;;5094213;28;20048;-67
2021/12/31 03:35:02;;;;;;;14.52;3.42;;;12.50;99.90;;;;;;5103551;28;20097;-67
2021/12/31 03:37:28;;;;;;;13.93;4.50;;;12.50;99.90;;;;;;5094428;28;20051;-67
2021/12/31 03:39:53;;;;;;;14.70;3.80;;;12.40;99.90;;;;;;5116549;28;20035;-67
2021/12/31 03:42:20;;;;;;;14.98;3.78;;;12.50;99.90;;;;;;5116601;28;20051;-67
2021/12/31 03:44:45;;;;;;;18.35;3.83;;;12.50;99.90;;;;;;5115715;28;20047;-67
2021/12/31 03:47:11;;;;;;;9.98;3.92;;;12.40;99.90;;;;;;5116588;28;20775;-67
2021/12/31 03:49:37;;;;;;;18.65;4.25;;;12.40;99.90;;;;;;5116181;28;20055;-67
2021/12/31 03:52:03;;;;;;;13.15;3.45;;;12.50;99.90;;;;;;5116047;28;20043;-67
2021/12/31 03:54:28;;;;;;;9.85;3.30;;;12.40;99.90;;;;;;5117802;28;20121;-67
2021/12/31 03:56:54;;;;;;;9.30;3.53;;;12.40;99.90;;;;;;5116463;28;20043;-67
2021/12/31 03:59:19;;;;;;;10.57;2.72;;;12.40;99.90;;;;;;5115640;28;20063;-67
2021/12/31 04:01:45;;;;;;;11.98;2.95;;;12.40;99.90;;;;;;5117418;28;20039;-67
2021/12/31 04:04:13;;;;;;;17.05;2.95;;;12.40;99.90;;;;;;5117669;28;20047;-67
2021/12/31 04:06:39;;;;;;;13.85;3.50;;;12.40;99.90;;;;;;5117007;27;20039;-67
2021/12/31 04:09:05;;;;;;;14.27;4.38;;;12.40;99.90;;;;;;5117893;27;20079;-67
2021/12/31 04:11:31;;;;;;;10.50;3.20;;;12.40;99.90;;;;;;5115942;28;20402;-67
2021/12/31 04:13:56;;;;;;;12.77;3.03;;;12.40;99.90;;;;;;5115897;28;20051;-67
2021/12/31 04:16:22;;;;;;;10.13;2.97;;;12.40;99.90;;;;;;5117555;28;20054;-67
2021/12/31 04:18:48;;;;;;;10.43;2.88;;;12.50;99.90;;;;;;5115901;28;20170;-67
2021/12/31 04:21:18;;;;;;;13.77;3.13;;;12.50;99.90;;;;;;5115525;28;20052;-67
2021/12/31 04:23:51;;;;;;;13.55;2.92;;;12.50;99.90;;;;;;5116000;28;20073;-67
2021/12/31 04:26:17;;;;;;;10.55;3.35;;;12.60;99.90;;;;;;5115844;28;20216;-67
2021/12/31 04:28:43;;;;;;;10.82;4.03;;;12.50;99.90;;;;;;5116204;28;20070;-67
2021/12/31 04:31:11;;;;;;;14.50;3.25;;;12.50;99.90;;;;;;5116269;28;20139;-67
2021/12/31 04:33:37;;;;;;;8.90;3.28;;;12.50;99.90;;;;;;5116447;27;20123;-67
2021/12/31 04:36:02;;;;;;;9.73;3.00;;;12.50;99.90;;;;;;5116481;28;20480;-67
2021/12/31 04:38:28;;;;;;;15.52;2.80;;;12.60;99.90;;;;;;5116129;28;20047;-67
2021/12/31 04:40:54;;;;;;;13.18;3.00;;;12.60;99.90;;;;;;5116786;28;20086;-67
2021/12/31 04:43:19;;;;;;;8.38;2.72;;;12.60;99.90;;;;;;5116239;28;20047;-67
2021/12/31 04:45:45;;;;;;;10.80;2.75;;;12.70;99.90;;;;;;5117059;28;20127;-67
2021/12/31 04:48:10;;;;;;;9.32;3.25;;;12.70;99.90;;;;;;5112324;28;20693;-67
2021/12/31 04:50:36;;;;;;;10.07;2.33;;;12.70;99.90;;;;;;5114092;28;20048;-67
2021/12/31 04:53:05;;;;;;;10.63;2.85;;;12.80;99.90;;;;;;5114255;28;20058;-67
2021/12/31 04:55:31;;;;;;;13.07;3.35;;;12.80;99.90;;;;;;5112077;28;20044;-67
2021/12/31 04:57:57;;;;;;;9.88;2.38;;;12.80;99.90;;;;;;5112667;28;20051;-68
2021/12/31 05:00:22;;;;;;;12.73;3.40;;;12.80;99.90;;;;;;5112554;28;20054;-67
2021/12/31 05:02:48;;;;;;;7.82;2.63;;;12.70;99.90;;;;;;5111547;28;20052;-67
2021/12/31 05:05:14;;;;;;;7.05;2.72;;;12.70;99.90;;;;;;5112654;28;20055;-67
2021/12/31 05:07:40;;;;;;;11.35;3.28;;;12.70;99.90;;;;;;5112183;28;20553;-68
2021/12/31 05:10:09;;;;;;;8.73;3.03;;;12.70;99.90;;;;;;5111655;28;20131;-67
2021/12/31 05:12:37;;;;;;;9.00;2.88;;;12.70;99.90;;;;;;5112106;28;20047;-67
2021/12/31 05:15:07;;;;;;;13.25;3.67;;;12.60;99.90;;;;;;5112225;28;20538;-67
2021/12/31 05:17:33;;;;;;;6.53;2.97;;;12.60;99.90;;;;;;5111329;28;20055;-67
2021/12/31 05:19:59;;;;;;;4.88;2.17;;;12.60;99.90;;;;;;5112114;28;20109;-67
2021/12/31 05:22:25;;;;;;;7.70;2.47;;;12.60;99.90;;;;;;5099102;28;20049;-68
2021/12/31 05:24:51;;;;;;;6.88;2.97;;;12.70;99.90;;;;;;5102170;28;20127;-67
2021/12/31 05:27:16;;;;;;;9.98;2.50;;;12.70;99.90;;;;;;5098423;28;20052;-67
2021/12/31 05:29:42;;;;;;;7.28;1.92;;;12.70;99.90;;;;;;5101116;28;20059;-67
2021/12/31 05:32:07;;;;;;;9.43;3.15;;;12.60;99.90;;;;;;5089344;28;20052;-67
2021/12/31 05:34:42;;;;;;;8.57;2.28;;;12.60;99.90;;;;;;5094973;28;20072;-67
2021/12/31 05:37:08;;;;;;;6.32;2.60;;;12.60;99.90;;;;;;5118143;27;20126;-67
2021/12/31 05:39:33;;;;;;;6.30;2.58;;;12.60;99.90;;;;;;5101926;28;20123;-68
2021/12/31 05:41:59;;;;;;;7.65;2.70;;;12.50;99.90;;;;;;5103355;28;20039;-67
2021/12/31 05:44:24;;;;;;;7.93;2.17;;;12.50;99.90;;;;;;5098293;28;20059;-67
2021/12/31 05:46:52;;;;;;;8.32;2.20;;;12.50;99.90;;;;;;5095188;28;20483;-67
2021/12/31 05:49:18;;;;;;;5.93;1.98;;;12.50;99.90;;;;;;5092784;28;20051;-67
2021/12/31 05:51:43;;;;;;;6.05;2.30;;;12.50;99.90;;;;;;5090079;28;20135;-67
2021/12/31 05:54:09;;;;;;;4.20;1.73;;;12.50;99.90;;;;;;5095433;28;20044;-67
2021/12/31 05:56:34;;;;;;;5.22;1.92;;;12.50;99.90;;;;;;5101765;28;20491;-67
2021/12/31 05:59:00;;;;;;;7.93;2.15;;;12.50;99.90;;;;;;5098441;28;20040;-67
2021/12/31 06:01:25;;;;;;;3.60;1.85;;;12.50;99.90;;;;;;5101671;28;20138;-67
2021/12/31 06:03:51;;;;;;;6.30;2.20;;;12.50;99.90;;;;;;5101630;28;20036;-67
2021/12/31 06:06:17;;;;;;;6.88;2.35;;;12.50;99.90;;;;;;5109379;28;20091;-67
2021/12/31 06:08:42;;;;;;;7.18;2.20;;;12.50;99.90;;;;;;5098422;28;20048;-67
2021/12/31 06:11:09;;;;;;;10.00;2.40;;;12.50;99.90;;;;;;5100822;28;20047;-67
2021/12/31 06:13:38;;;;;;;6.30;2.40;;;12.60;99.90;;;;;;5099015;28;20052;-67
2021/12/31 06:16:07;;;;;;;5.13;1.98;;;12.60;99.90;;;;;;5105299;28;20395;-67
2021/12/31 06:18:33;;;;;;;4.13;2.00;;;12.60;99.90;;;;;;5089775;28;20056;-68
2021/12/31 06:20:58;;;;;;;8.80;2.15;;;12.60;99.90;;;;;;5090401;28;20052;-67
2021/12/31 06:23:24;;;;;;;4.50;2.22;;;12.60;99.90;;;;;;5090563;28;20047;-67
2021/12/31 06:25:49;;;;;;;5.18;2.00;;;12.60;99.90;;;;;;5089861;28;20056;-68
2021/12/31 06:28:15;;;;;;;7.43;2.15;;;12.60;99.90;;;;;;5090533;28;20051;-67
2021/12/31 06:30:40;;;;;;;6.50;2.22;;;12.60;99.90;;;;;;5099719;28;20461;-67
2021/12/31 06:33:06;;;;;;;3.25;1.75;;;12.50;99.90;;;;;;5096167;28;20039;-67
2021/12/31 06:35:32;;;;;;;3.08;1.70;;;12.50;99.90;;;;;;5092665;28;20047;-67
2021/12/31 06:37:58;;;;;;;5.25;2.03;;;12.60;99.90;;;;;;5099639;28;20491;-67
2021/12/31 06:40:24;;;;;;;4.32;2.05;;;12.60;99.90;;;;;;5090789;28;20102;-67
2021/12/31 06:42:50;;;;;;;4.13;2.10;;;12.60;99.90;;;;;;5094502;28;20039;-67
2021/12/31 06:45:16;;;;;;;3.58;1.75;;;12.60;99.90;;;;;;5090580;28;20517;-67
2021/12/31 06:47:41;;;;;;;5.53;2.20;;;12.60;99.90;;;;;;5089556;28;20059;-67
2021/12/31 06:50:08;;;;;;;4.70;2.20;;;12.50;99.90;;;;;;5090094;28;20135;-67
2021/12/31 06:52:38;;;;;;;3.67;1.75;;;12.50;99.90;;;;;;5090131;28;20100;-67
2021/12/31 06:55:08;;;;;;;3.92;2.05;;;12.50;99.90;;;;;;5089611;28;20067;-67
2021/12/31 06:57:34;;;;;;;5.13;1.80;;;12.50;99.90;;;;;;5090008;28;20044;-67
2021/12/31 07:00:02;;;;;;;5.97;2.15;;;12.50;99.90;;;;;;5091404;28;20044;-67
2021/12/31 07:02:27;;;;;;;3.88;1.90;;;12.50;99.90;;;;;;5089142;28;20462;-67
2021/12/31 07:04:53;;;;;;;3.80;2.00;;;12.50;99.90;;;;;;5090976;28;20079;-67
2021/12/31 07:07:18;;;;;;;3.30;1.75;;;12.50;99.90;;;;;;5091270;28;20039;-67
2021/12/31 07:09:44;;;;;;;3.00;1.65;;;12.50;99.90;;;;;;5093361;28;20606;-67
2021/12/31 07:12:10;;;;;;;3.53;1.73;;;12.50;99.90;;;;;;5100804;28;20039;-67
2021/12/31 07:14:36;;;;;;;5.88;2.10;;;12.50;99.90;;;;;;5090851;28;20052;-67
2021/12/31 07:17:02;;;;;;;4.35;2.13;;;12.50;99.90;;;;;;5085448;28;20058;-67
2021/12/31 07:19:27;;;;;;;6.32;1.55;;;12.50;99.90;;;;;;5108795;28;20091;-67
2021/12/31 07:21:53;;;;;;;4.18;1.55;;;12.40;99.90;;;;;;5068101;28;20052;-67
2021/12/31 07:24:18;;;;;;;6.53;1.70;;;12.40;99.90;;;;;;5069332;28;20048;-67
2021/12/31 07:26:44;;;;;;;3.08;1.88;;;12.30;99.90;;;;;;5084815;28;20044;-67
2021/12/31 07:29:09;;;;;;;7.97;2.17;;;12.30;99.90;;;;;;5110758;28;20042;-67
2021/12/31 07:31:35;;;;;;;4.00;1.50;;;12.20;99.90;;;;;;5111093;28;20470;-67
2021/12/31 07:34:01;;;;;;;4.85;1.85;;;12.20;99.90;;;;;;5111268;28;20048;-67
2021/12/31 07:36:29;;;;;;;4.10;1.73;;;12.10;99.90;;;;;;5108089;28;20166;-67
2021/12/31 07:39:00;;;;;;;5.30;1.70;;;12.10;99.90;;;;;;5097175;28;20097;-67
2021/12/31 07:41:26;;;;;;;5.28;2.28;;;12.10;99.90;;;;;;5089577;28;20052;-67
2021/12/31 07:43:52;;;;;;;6.68;1.73;;;12.10;99.90;;;;;;5087673;28;20040;-67
2021/12/31 07:46:18;;;;;;;4.88;2.13;;;12.00;99.90;;;;;;5088674;28;20063;-68
2021/12/31 07:48:43;;;;;;;6.93;2.00;;;12.00;99.90;;;;;;5089371;28;20098;-67
2021/12/31 07:51:09;;;;;;;3.50;1.80;;;12.00;99.90;;;;;;5088797;28;20052;-67
2021/12/31 07:53:35;;;;;;;10.40;2.75;;;12.00;99.90;;;;;;5097247;28;20147;-67
2021/12/31 07:56:00;;;;;;;4.40;1.95;;;12.00;99.90;;;;;;5095719;28;20047;-67
2021/12/31 07:58:27;;;;;;;4.22;1.80;;;12.00;99.90;;;;;;5093158;28;20479;-68
2021/12/31 08:00:53;;;;;;;4.88;1.83;;;12.00;99.90;;;;;;5109404;28;20486;-67
2021/12/31 08:03:18;;;;;;;2.97;1.60;;;12.00;99.90;;;;;;5100256;28;20047;-68
2021/12/31 08:05:44;;;;;;;5.82;2.13;;;12.00;99.90;;;;;;5093509;28;20048;-68
2021/12/31 08:08:10;;;;;;;3.72;2.15;;;12.00;99.90;;;;;;5086597;28;20044;-67
2021/12/31 08:10:37;;;;;;;3.65;1.92;;;12.00;99.90;;;;;;5089868;28;20056;-67
2021/12/31 08:13:03;;;;;;;4.57;2.00;;;12.00;99.90;;;;;;5088166;28;20390;-68
2021/12/31 08:15:30;;;;;;;5.70;2.35;;;12.00;99.90;;;;;;5087193;28;20051;-68
2021/12/31 08:17:59;;;;;;;3.17;1.75;;;12.00;99.90;;;;;;5088078;28;20077;-68
2021/12/31 08:20:25;;;;;;;4.57;1.65;;;12.00;99.90;;;;;;5087340;28;20060;-66
2021/12/31 08:22:51;;;;;;;5.45;2.13;;;12.10;99.90;;;;;;5089551;28;20154;-66
2021/12/31 08:25:18;;;;;;;5.15;2.17;;;12.10;99.90;;;;;;5083425;28;20136;-67
2021/12/31 08:27:43;;;;;;;3.58;1.70;;;12.10;99.90;;;;;;5095991;28;20126;-66
2021/12/31 08:30:10;;;;;;;5.50;1.92;;;12.20;99.90;;;;;;5112866;28;20665;-66
2021/12/31 08:32:36;;;;;;;5.07;2.13;;;12.20;99.90;;;;;;5101803;28;20040;-66
2021/12/31 08:35:03;;;;;;;3.00;2.00;;;12.20;99.90;;;;;;5091921;28;20070;-66
2021/12/31 08:37:29;;;;;;;5.93;1.92;;;12.20;99.90;;;;;;5091098;28;20044;-68
2021/12/31 08:39:55;;;;;;;6.60;2.25;;;12.20;99.90;;;;;;5090418;28;20052;-67
2021/12/31 08:42:20;;;;;;;5.28;1.73;;;12.20;99.90;;;;;;5089106;28;20071;-67
2021/12/31 08:44:46;;;;;;;4.95;2.22;;;12.20;99.90;;;;;;5090895;28;20076;-67
2021/12/31 08:47:11;;;;;;;4.13;1.60;;;12.20;99.90;;;;;;5091243;28;20047;-67
2021/12/31 08:49:37;;;;;;;5.30;2.45;;;12.20;99.90;;;;;;5105439;28;20054;-67
2021/12/31 08:52:03;;;;;;;5.97;1.83;;;12.20;99.90;;;;;;5107028;28;20055;-67
2021/12/31 08:54:29;;;;;;;5.22;1.95;;;12.30;99.90;;;;;;5110351;28;20043;-67
2021/12/31 08:56:55;;;;;;;8.35;2.67;;;12.30;99.90;;;;;;5092757;28;20138;-68
2021/12/31 08:59:20;;;;;;;7.25;2.17;;;12.20;99.90;;;;;;5091503;28;20123;-67
2021/12/31 09:01:46;;;;;;;6.47;3.13;;;12.20;99.90;;;;;;5089111;28;20051;-67
2021/12/31 09:04:12;;;;;;;3.30;2.80;;;12.20;99.90;;;;;;5089795;28;20048;-67
2021/12/31 09:06:38;;;;;;;6.20;2.55;;;12.20;99.90;;;;;;5100487;28;20397;-68
2021/12/31 09:09:04;;;;;;;4.38;1.90;;;12.20;99.90;;;;;;5111373;28;20040;-73
2021/12/31 09:11:30;;;;;;;9.80;2.33;;;12.20;99.90;;;;;;5110461;28;20409;-75
2021/12/31 09:13:57;;;;;;;4.25;1.92;;;12.10;99.90;;;;;;5112165;28;20039;-75
2021/12/31 09:16:23;;;;;;;4.95;2.40;;;12.10;99.90;;;;;;5111294;28;20459;-69
2021/12/31 09:18:48;;;;;;;8.43;2.42;;;12.10;99.90;;;;;;5113151;28;20043;-68
2021/12/31 09:21:17;;;;;;;6.00;2.70;;;12.10;99.90;;;;;;5112325;28;20116;-69
2021/12/31 09:23:47;;;;;;;6.13;2.25;;;12.10;99.90;;;;;;5109611;28;20543;-68
2021/12/31 09:26:15;;;;;;;5.97;2.42;;;12.10;99.90;;;;;;5097610;28;20048;-69
2021/12/31 09:28:44;;;;;;;8.25;2.60;;;12.10;99.90;;;;;;5096974;28;20044;-68
2021/12/31 09:31:11;;;;;;;5.60;2.42;;;12.10;99.90;;;;;;5084722;28;20083;-68
2021/12/31 09:33:36;;;;;;;6.18;2.28;;;13.20;99.90;;;;;;5074459;28;20180;-69
2021/12/31 09:36:03;;;;;;;12.60;3.60;;;12.10;99.90;;;;;;5085934;28;20062;-68
2021/12/31 09:38:29;;;;;;;6.35;2.28;;;12.10;99.90;;;;;;5085065;28;20044;-69
2021/12/31 09:40:55;;;;;;;13.45;2.90;;;12.10;99.90;;;;;;5091344;28;20052;-69
2021/12/31 09:43:20;;;;;;;6.93;2.10;;;12.10;99.90;;;;;;5090777;28;20040;-69
2021/12/31 09:45:50;;;;;;;6.15;2.20;;;12.10;99.90;;;;;;5091340;28;20421;-69
2021/12/31 09:48:18;;;;;;;5.43;2.38;;;12.10;99.90;;;;;;5103954;28;20043;-69
2021/12/31 09:50:49;;;;;;;9.77;3.00;;;12.10;99.90;;;;;;5110880;28;20052;-69
2021/12/31 09:53:16;;;;;;;8.57;2.80;;;12.00;99.90;;;;;;5093448;28;20056;-68
2021/12/31 09:55:46;;;;;;;7.55;2.92;;;12.00;99.90;;;;;;5089456;28;20150;-69
2021/12/31 09:58:14;;;;;;;9.48;3.03;;;12.00;99.90;;;;;;5080694;28;20056;-68
2021/12/31 10:00:43;;;;;;;6.78;2.78;;;11.90;99.90;;;;;;5095405;28;20052;-68
2021/12/31 10:03:14;;;;;;;7.45;3.08;;;11.80;99.90;;;;;;5090968;28;20826;-69
2021/12/31 10:05:48;;;;;;;10.17;4.67;;;11.80;99.90;;;;;;5089996;28;20051;-68
2021/12/31 10:08:19;;;;;;;7.13;3.65;;;11.80;99.90;;;;;;5105531;28;20052;-68
2021/12/31 10:11:04;;;;;;;5.43;2.60;;;11.70;99.90;;;;;;5110456;28;20402;-69
2021/12/31 10:13:31;;;;;;;6.60;2.92;;;11.70;99.90;;;;;;5112289;28;20362;-69
2021/12/31 10:15:57;;;;;;;6.65;3.28;;;11.60;99.90;;;;;;5111020;28;20048;-70
2021/12/31 10:18:36;;;;;;;10.80;3.55;;;11.70;99.90;;;;;;5105717;28;20040;-69
2021/12/31 10:21:04;;;;;;;6.32;3.40;;;11.60;99.90;;;;;;5091182;28;20441;-69
2021/12/31 10:23:30;;;;;;;14.73;3.78;;;11.60;99.90;;;;;;5089908;28;20059;-70
2021/12/31 10:26:17;;;;;;;8.35;3.50;;;11.60;99.90;;;;;;5087609;28;20445;-69
2021/12/31 10:28:53;;;;;;;9.43;3.03;;;11.60;99.90;;;;;;5108762;27;20051;-70
2021/12/31 10:31:19;;;;;;;10.77;3.33;;;11.60;99.90;;;;;;5088629;28;20056;-69
2021/12/31 10:33:47;;;;;;;7.07;3.38;;;11.60;99.90;;;;;;5088285;28;20028;-69
2021/12/31 10:36:32;;;;;;;8.18;3.17;;;11.60;99.90;;;;;;5091609;28;20105;-69
2021/12/31 10:39:15;;;;;;;8.98;3.53;;;11.60;99.90;;;;;;5087702;28;20418;-69
2021/12/31 10:41:41;;;;;;;8.90;3.65;;;11.50;99.90;;;;;;5088846;28;20054;-70
2021/12/31 10:44:07;;;;;;;7.97;3.30;;;11.50;99.90;;;;;;5086610;28;20048;-69
2021/12/31 10:46:32;;;;;;;7.28;3.85;;;11.50;99.90;;;;;;5087596;28;20122;-69
2021/12/31 10:49:06;;;;;;;9.02;3.78;;;11.60;99.90;;;;;;5106832;28;20110;-70
2021/12/31 10:51:46;;;;;;;9.95;4.65;;;11.60;99.90;;;;;;5086943;28;20051;-69
2021/12/31 10:54:46;;;;;;;11.65;4.00;;;11.60;99.90;;;;;;5105474;28;20040;-69
2021/12/31 10:57:12;;;;;;;10.88;3.47;;;11.60;99.90;;;;;;5093428;28;20103;-69
2021/12/31 10:59:37;;;;;;;7.53;4.20;;;11.50;99.90;;;;;;5088869;28;20498;-69
2021/12/31 11:02:06;;;;;;;10.88;3.47;;;11.70;99.90;;;;;;5087448;28;20131;-69
2021/12/31 11:04:34;;;;;;;17.42;4.45;;;11.70;99.90;;;;;;5090479;28;20040;-69
2021/12/31 11:07:00;;;;;;;9.30;3.83;;;11.70;99.90;;;;;;5088788;28;20123;-68
2021/12/31 11:09:29;;;;;;;6.10;3.38;;;11.60;99.90;;;;;;5089393;28;20526;-67
2021/12/31 11:11:57;;;;;;;16.13;4.07;;;11.60;99.90;;;;;;5082409;28;20487;-67
2021/12/31 11:14:24;;;;;;;10.32;4.70;;;11.60;99.90;;;;;;5085318;28;20498;-67
2021/12/31 11:16:49;;;;;;;8.65;4.47;;;11.60;99.90;;;;;;5087810;28;20052;-67
2021/12/31 11:19:16;;;;;;;9.77;4.10;;;11.50;99.90;;;;;;5108656;28;20048;-68
2021/12/31 11:21:43;;;;;;;9.65;4.45;;;11.50;99.90;;;;;;5110432;28;20538;-67
2021/12/31 11:24:28;;;;;;;10.07;3.53;;;11.50;99.90;;;;;;5089878;28;20176;-67
2021/12/31 11:26:54;;;;;;;8.27;3.78;;;11.50;99.90;;;;;;5075442;28;20044;-67
2021/12/31 11:29:20;;;;;;;15.02;3.92;;;11.40;99.90;;;;;;5089540;28;20139;-67
2021/12/31 11:31:46;;;;;;;14.40;4.18;;;11.30;99.90;;;;;;5088334;28;20461;-67
2021/12/31 11:34:13;;;;;;;12.38;4.25;;;11.30;99.90;;;;;;5088019;28;20447;-67
2021/12/31 11:36:51;;;;;;;7.05;3.80;;;11.30;99.90;;;;;;5086863;28;20036;-67
2021/12/31 11:39:23;;;;;;;9.52;3.88;;;11.30;99.90;;;;;;5104714;28;20068;-68
2021/12/31 11:41:55;;;;;;;9.50;4.43;;;11.30;99.90;;;;;;5085783;28;20059;-68
2021/12/31 11:44:23;;;;;;;12.70;4.78;;;11.20;99.90;;;;;;5089183;28;20475;-68
2021/12/31 11:46:50;;;;;;;9.27;4.35;;;11.20;99.90;;;;;;5089234;28;20040;-67
2021/12/31 11:49:26;;;;;;;8.82;4.40;;;11.20;99.90;;;;;;5085585;28;20059;-67
2021/12/31 11:52:06;;;;;;;9.68;3.50;;;11.20;99.90;;;;;;5086966;28;20119;-68
2021/12/31 11:54:35;;;;;;;7.80;6.07;;;11.10;99.90;;;;;;5086691;28;20059;-68
2021/12/31 11:57:03;;;;;;;6.80;4.85;;;11.10;99.90;;;;;;5086010;28;20040;-68
2021/12/31 11:59:29;;;;;;;7.05;3.90;;;11.10;99.90;;;;;;5091190;28;20040;-68
2021/12/31 12:02:20;;;;;;;11.55;5.45;;;11.10;99.90;;;;;;5092103;28;20048;-68
2021/12/31 12:05:03;;;;;;;12.68;9.05;;;11.10;99.90;;;;;;5103506;28;20046;-68
2021/12/31 12:07:46;;;;;;;9.75;5.82;;;11.20;99.90;;;;;;5071076;28;20055;-70
2021/12/31 12:10:13;;;;;;;;;;;11.30;99.90;;;;;;5072336;28;20562;-68
2021/12/31 12:12:40;;;;;;;12.27;7.38;;;11.30;99.90;;;;;;5071146;28;20298;-69
2021/12/31 12:15:15;;;;;;;7.30;4.40;;;11.20;99.90;;;;;;5071618;28;20063;-68
2021/12/31 12:17:44;;;;;;;16.33;11.93;;;11.20;99.90;;;;;;5070405;28;20052;-68
2021/12/31 12:20:18;;;;;;;18.88;12.27;;;11.20;99.90;;;;;;5077352;28;20414;-69
2021/12/31 12:22:51;;;;;;;7.65;5.38;;;11.30;99.90;;;;;;5073488;28;20060;-68
2021/12/31 12:25:32;;;;;;;7.43;5.05;;;11.20;99.90;;;;;;5074941;28;20055;-69
2021/12/31 12:28:05;;;;;;;8.05;4.43;;;11.30;99.90;;;;;;5093857;28;20048;-68
2021/12/31 12:30:32;;;;;;;15.73;7.20;;;11.30;99.90;;;;;;5091184;28;20498;-70
2021/12/31 12:33:16;;;;;;;7.18;5.20;;;11.30;99.90;;;;;;5091295;28;20051;-69
2021/12/31 12:35:46;;;;;;;6.55;4.25;;;11.30;99.90;;;;;;5078901;28;20058;-70
2021/12/31 12:38:15;;;;;;;7.88;5.00;;;11.30;99.90;;;;;;5072784;28;20032;-68
2021/12/31 12:41:02;;;;;;;11.05;7.10;;;11.40;99.90;;;;;;5071809;28;20494;-69
2021/12/31 12:43:36;;;;;;;6.50;3.40;;;11.30;99.90;;;;;;5082020;28;20620;-68
2021/12/31 12:46:07;;;;;;;7.30;3.60;;;11.20;99.90;;;;;;5070469;28;20090;-68
2021/12/31 12:48:33;;;;;;;5.72;3.60;;;11.30;99.90;;;;;;5079273;28;20089;-69